Time;durP1;ratioP1;P1;durP2;ratioP2;P2;SDS_P1;SDS_P2;PMS_P1;PMS_P2;Temp;Humidity;BMP_temperature;BMP_pressure;BME280_temperature;BME280_humidity;BME280_pressure;Samples;Min_cycle;Max_cycle;Signal;HPM_P1;HPM_P2
2022/04/03 00:00:27;;;;;;;0.28;0.28;;;;;;;;;;4211530;28;20525;-34
2022/04/03 00:02:29;;;;;;;0.08;0.08;;;;;;;;;;4211683;28;20097;-34
2022/04/03 00:04:29;;;;;;;0.52;0.03;;;;;;;;;;4211882;28;20113;-34
2022/04/03 00:06:30;;;;;;;0.28;0.10;;;;;;;;;;4211648;28;20499;-34
2022/04/03 00:08:31;;;;;;;0.20;0.17;;;;;;;;;;4211808;28;20078;-34
2022/04/03 00:10:33;;;;;;;0.10;0.10;;;;;;;;;;4213247;28;20418;-34
2022/04/03 00:12:34;;;;;;;0.20;0.10;;;;;;;;;;4214773;28;20514;-34
2022/04/03 00:14:34;;;;;;;0.10;0.10;;;;;;;;;;4214832;28;20036;-34
2022/04/03 00:16:37;;;;;;;0.52;0.20;;;;;;;;;;4213284;28;20112;-34
2022/04/03 00:18:38;;;;;;;0.20;0.20;;;;;;;;;;4214821;28;20414;-34
2022/04/03 00:20:40;;;;;;;0.20;0.10;;;;;;;;;;4214632;28;20048;-34
2022/04/03 00:22:43;;;;;;;0.13;0.10;;;;;;;;;;4214721;28;20048;-34
2022/04/03 00:24:45;;;;;;;0.55;0.10;;;;;;;;;;4214061;28;20044;-34
2022/04/03 00:26:45;;;;;;;0.50;0.17;;;;;;;;;;4214673;28;20062;-34
2022/04/03 00:28:46;;;;;;;0.40;0.20;;;;;;;;;;4214575;28;20059;-34
2022/04/03 00:30:48;;;;;;;0.17;0.10;;;;;;;;;;4214480;28;20189;-35
2022/04/03 00:32:49;;;;;;;0.10;0.10;;;;;;;;;;4214686;28;20493;-34
2022/04/03 00:34:50;;;;;;;0.20;0.10;;;;;;;;;;4214729;28;20056;-34
2022/04/03 00:36:54;;;;;;;0.17;0.10;;;;;;;;;;4214417;28;20044;-34
2022/04/03 00:38:55;;;;;;;0.20;0.10;;;;;;;;;;4214870;28;20047;-34
2022/04/03 00:40:56;;;;;;;0.20;0.10;;;;;;;;;;4214095;28;20048;-34
2022/04/03 00:42:57;;;;;;;0.10;0.10;;;;;;;;;;4214655;28;20097;-34
2022/04/03 00:44:58;;;;;;;0.13;0.10;;;;;;;;;;4214245;28;20047;-34
2022/04/03 00:46:59;;;;;;;0.15;0.10;;;;;;;;;;4214577;28;20105;-34
2022/04/03 00:49:01;;;;;;;0.20;0.20;;;;;;;;;;4214222;28;20523;-35
2022/04/03 00:51:02;;;;;;;0.10;0.10;;;;;;;;;;4208487;28;20063;-34
2022/04/03 00:53:03;;;;;;;0.15;0.10;;;;;;;;;;4200760;28;20059;-34
2022/04/03 00:55:04;;;;;;;0.10;0.10;;;;;;;;;;4211780;28;20052;-34
2022/04/03 00:57:05;;;;;;;0.10;0.10;;;;;;;;;;4212220;28;20047;-34
2022/04/03 00:59:09;;;;;;;0.10;0.10;;;;;;;;;;4210899;28;20052;-33
2022/04/03 01:01:10;;;;;;;0.10;0.10;;;;;;;;;;4212601;28;20133;-34
2022/04/03 01:03:10;;;;;;;0.10;0.10;;;;;;;;;;4211723;28;20059;-34
2022/04/03 01:05:11;;;;;;;0.20;0.20;;;;;;;;;;4212107;28;20188;-34
2022/04/03 01:07:12;;;;;;;0.85;0.30;;;;;;;;;;4212038;28;20185;-34
2022/04/03 01:09:14;;;;;;;0.10;0.10;;;;;;;;;;4210091;28;20044;-34
2022/04/03 01:11:20;;;;;;;0.40;0.20;;;;;;;;;;4197209;28;20044;-34
2022/04/03 01:13:21;;;;;;;0.20;0.20;;;;;;;;;;4197236;28;20063;-34
2022/04/03 01:15:22;;;;;;;0.05;0.00;;;;;;;;;;4196925;28;20049;-34
2022/04/03 01:17:23;;;;;;;0.25;0.10;;;;;;;;;;4197376;28;20066;-34
2022/04/03 01:19:25;;;;;;;0.47;0.10;;;;;;;;;;4196903;28;20446;-34
2022/04/03 01:21:25;;;;;;;0.43;0.10;;;;;;;;;;4197150;28;20094;-34
2022/04/03 01:23:26;;;;;;;0.20;0.20;;;;;;;;;;4196969;28;20087;-34
2022/04/03 01:25:27;;;;;;;0.20;0.20;;;;;;;;;;4194297;28;20055;-34
2022/04/03 01:27:28;;;;;;;0.73;0.10;;;;;;;;;;4193829;28;20048;-34
2022/04/03 01:29:29;;;;;;;0.25;0.20;;;;;;;;;;4194873;28;20045;-34
2022/04/03 01:31:30;;;;;;;0.15;0.10;;;;;;;;;;4195225;28;20168;-34
2022/04/03 01:33:31;;;;;;;0.10;0.10;;;;;;;;;;4211720;28;20139;-34
2022/04/03 01:35:32;;;;;;;0.10;0.10;;;;;;;;;;4211585;28;20100;-34
2022/04/03 01:37:33;;;;;;;0.20;0.20;;;;;;;;;;4205453;28;20044;-34
2022/04/03 01:39:35;;;;;;;0.13;0.10;;;;;;;;;;4204526;28;20067;-34
2022/04/03 01:41:39;;;;;;;0.10;0.10;;;;;;;;;;4195557;28;20048;-34
2022/04/03 01:43:40;;;;;;;0.17;0.17;;;;;;;;;;4196696;28;20335;-34
2022/04/03 01:45:41;;;;;;;0.25;0.20;;;;;;;;;;4196610;28;20091;-34
2022/04/03 01:47:42;;;;;;;0.25;0.10;;;;;;;;;;4196716;28;20052;-34
2022/04/03 01:49:43;;;;;;;0.20;0.10;;;;;;;;;;4196323;28;20086;-34
2022/04/03 01:51:44;;;;;;;0.73;0.17;;;;;;;;;;4196708;28;20048;-34
2022/04/03 01:53:45;;;;;;;0.00;0.00;;;;;;;;;;4196595;28;20186;-34
2022/04/03 01:55:56;;;;;;;0.55;0.10;;;;;;;;;;4194625;28;20049;-34
2022/04/03 01:57:57;;;;;;;0.20;0.10;;;;;;;;;;4196574;28;20062;-34
2022/04/03 01:59:58;;;;;;;0.03;0.03;;;;;;;;;;4196694;28;20157;-34
2022/04/03 02:01:59;;;;;;;0.10;0.10;;;;;;;;;;4196632;28;20547;-34
2022/04/03 02:04:01;;;;;;;1.55;0.10;;;;;;;;;;4196399;28;20056;-34
2022/04/03 02:06:01;;;;;;;0.38;0.20;;;;;;;;;;4196297;28;20048;-34
2022/04/03 02:08:03;;;;;;;0.20;0.10;;;;;;;;;;4195205;28;20056;-34
2022/04/03 02:10:08;;;;;;;0.20;0.10;;;;;;;;;;4195983;28;20056;-34
2022/04/03 02:12:09;;;;;;;0.43;0.10;;;;;;;;;;4196115;28;20118;-34
2022/04/03 02:14:10;;;;;;;0.00;0.00;;;;;;;;;;4197913;28;20048;-34
2022/04/03 02:16:11;;;;;;;0.20;0.10;;;;;;;;;;4212710;28;20059;-34
2022/04/03 02:18:13;;;;;;;0.22;0.20;;;;;;;;;;4205064;28;20044;-34
2022/04/03 02:20:14;;;;;;;0.35;0.20;;;;;;;;;;4208512;28;20096;-34
2022/04/03 02:22:15;;;;;;;0.30;0.10;;;;;;;;;;4212810;28;20432;-34
2022/04/03 02:24:16;;;;;;;0.10;0.10;;;;;;;;;;4213141;28;20044;-34
2022/04/03 02:26:17;;;;;;;0.20;0.10;;;;;;;;;;4210824;28;20467;-34
2022/04/03 02:28:19;;;;;;;0.10;0.08;;;;;;;;;;4212640;28;20108;-34
2022/04/03 02:30:20;;;;;;;0.20;0.10;;;;;;;;;;4212479;28;20056;-34
2022/04/03 02:32:21;;;;;;;0.10;0.10;;;;;;;;;;4212366;28;20052;-34
2022/04/03 02:34:21;;;;;;;0.45;0.10;;;;;;;;;;4212579;28;20078;-34
2022/04/03 02:36:23;;;;;;;0.20;0.08;;;;;;;;;;4212496;28;20079;-34
2022/04/03 02:38:24;;;;;;;0.28;0.17;;;;;;;;;;4211322;28;20418;-34
2022/04/03 02:40:24;;;;;;;0.10;0.10;;;;;;;;;;4212289;28;20094;-34
2022/04/03 02:42:25;;;;;;;0.20;0.20;;;;;;;;;;4212377;28;20048;-34
2022/04/03 02:44:26;;;;;;;0.10;0.10;;;;;;;;;;4216001;28;20070;-34
2022/04/03 02:46:27;;;;;;;0.10;0.10;;;;;;;;;;4201458;28;20048;-34
2022/04/03 02:48:28;;;;;;;0.10;0.10;;;;;;;;;;4205828;28;20056;-34
2022/04/03 02:50:30;;;;;;;0.10;0.10;;;;;;;;;;4196616;28;20102;-34
2022/04/03 02:52:31;;;;;;;0.20;0.17;;;;;;;;;;4195860;28;20427;-34
2022/04/03 02:54:32;;;;;;;0.10;0.10;;;;;;;;;;4195336;28;20048;-34
2022/04/03 02:56:33;;;;;;;1.75;0.10;;;;;;;;;;4195453;28;20093;-34
2022/04/03 02:58:34;;;;;;;0.30;0.10;;;;;;;;;;4206651;28;20046;-34
2022/04/03 03:00:35;;;;;;;0.10;0.10;;;;;;;;;;4212188;28;20059;-34
2022/04/03 03:02:36;;;;;;;0.17;0.15;;;;;;;;;;4212416;28;20048;-34
2022/04/03 03:04:37;;;;;;;0.10;0.10;;;;;;;;;;4211023;28;20561;-34
2022/04/03 03:06:38;;;;;;;0.03;0.03;;;;;;;;;;4212439;28;20475;-34
2022/04/03 03:08:39;;;;;;;0.10;0.10;;;;;;;;;;4212107;28;20058;-34
2022/04/03 03:10:41;;;;;;;0.10;0.10;;;;;;;;;;4210210;28;20419;-35
2022/04/03 03:12:42;;;;;;;0.15;0.10;;;;;;;;;;4211784;28;20048;-34
2022/04/03 03:14:42;;;;;;;0.00;0.00;;;;;;;;;;4212109;28;20090;-34
2022/04/03 03:16:43;;;;;;;0.40;0.10;;;;;;;;;;4211937;28;20059;-34
2022/04/03 03:18:45;;;;;;;0.30;0.15;;;;;;;;;;4211991;28;20040;-34
2022/04/03 03:20:46;;;;;;;0.20;0.15;;;;;;;;;;4211803;28;20113;-34
2022/04/03 03:22:48;;;;;;;0.10;0.10;;;;;;;;;;4212049;28;20177;-34
2022/04/03 03:24:48;;;;;;;0.10;0.10;;;;;;;;;;4210053;28;20071;-34
2022/04/03 03:26:49;;;;;;;0.15;0.15;;;;;;;;;;4211785;28;20132;-34
2022/04/03 03:28:51;;;;;;;0.00;0.00;;;;;;;;;;4212076;28;20056;-35
2022/04/03 03:30:52;;;;;;;0.15;0.10;;;;;;;;;;4211659;28;20070;-34
2022/04/03 03:32:53;;;;;;;0.20;0.10;;;;;;;;;;4211812;28;20044;-34
2022/04/03 03:34:54;;;;;;;0.20;0.10;;;;;;;;;;4211595;28;20395;-34
2022/04/03 03:36:55;;;;;;;0.05;0.05;;;;;;;;;;4211834;28;20084;-34
2022/04/03 03:38:56;;;;;;;0.13;0.10;;;;;;;;;;4204453;28;20137;-34
2022/04/03 03:40:57;;;;;;;0.20;0.08;;;;;;;;;;4198578;28;20095;-34
2022/04/03 03:42:58;;;;;;;0.47;0.10;;;;;;;;;;4194260;28;20135;-34
2022/04/03 03:44:59;;;;;;;0.20;0.10;;;;;;;;;;4195187;28;20048;-34
2022/04/03 03:47:01;;;;;;;0.20;0.15;;;;;;;;;;4195138;28;20097;-34
2022/04/03 03:49:03;;;;;;;0.17;0.10;;;;;;;;;;4195026;28;20402;-34
2022/04/03 03:51:04;;;;;;;0.40;0.40;;;;;;;;;;4193825;28;20120;-34
2022/04/03 03:53:06;;;;;;;0.17;0.10;;;;;;;;;;4194057;28;20048;-34
2022/04/03 03:55:08;;;;;;;0.20;0.15;;;;;;;;;;4194445;28;20048;-34
2022/04/03 03:57:09;;;;;;;0.10;0.10;;;;;;;;;;4194869;28;20492;-34
2022/04/03 03:59:10;;;;;;;0.10;0.10;;;;;;;;;;4202313;28;20059;-34
2022/04/03 04:01:12;;;;;;;0.10;0.10;;;;;;;;;;4211496;28;20074;-34
2022/04/03 04:03:13;;;;;;;0.00;0.00;;;;;;;;;;4211965;28;20048;-34
2022/04/03 04:05:14;;;;;;;0.35;0.10;;;;;;;;;;4211760;28;20122;-34
2022/04/03 04:07:15;;;;;;;0.20;0.10;;;;;;;;;;4209631;28;20399;-34
2022/04/03 04:09:16;;;;;;;0.10;0.10;;;;;;;;;;4203542;28;20060;-34
2022/04/03 04:11:18;;;;;;;0.30;0.10;;;;;;;;;;4194428;28;20048;-34
2022/04/03 04:13:19;;;;;;;0.20;0.10;;;;;;;;;;4194552;28;20059;-34
2022/04/03 04:15:20;;;;;;;0.40;0.00;;;;;;;;;;4204720;28;20135;-34
2022/04/03 04:17:21;;;;;;;0.30;0.20;;;;;;;;;;4211544;28;20052;-34
2022/04/03 04:19:22;;;;;;;0.30;0.10;;;;;;;;;;4211450;28;20415;-34
2022/04/03 04:21:23;;;;;;;0.20;0.10;;;;;;;;;;4211327;28;20048;-34
2022/04/03 04:23:24;;;;;;;0.10;0.10;;;;;;;;;;4211687;28;20146;-34
2022/04/03 04:25:25;;;;;;;0.17;0.17;;;;;;;;;;4211158;28;20044;-34
2022/04/03 04:27:26;;;;;;;0.10;0.10;;;;;;;;;;4211359;28;20309;-34
2022/04/03 04:29:27;;;;;;;0.10;0.10;;;;;;;;;;4211199;28;20123;-34
2022/04/03 04:31:28;;;;;;;0.10;0.10;;;;;;;;;;4195144;28;20407;-34
2022/04/03 04:33:29;;;;;;;0.10;0.10;;;;;;;;;;4191333;28;20044;-34
2022/04/03 04:35:30;;;;;;;0.20;0.20;;;;;;;;;;4192506;28;20052;-34
2022/04/03 04:37:31;;;;;;;0.10;0.10;;;;;;;;;;4192662;28;20048;-34
2022/04/03 04:39:32;;;;;;;0.45;0.22;;;;;;;;;;4192478;28;20094;-34
2022/04/03 04:41:33;;;;;;;0.10;0.10;;;;;;;;;;4192638;28;20162;-34
2022/04/03 04:43:34;;;;;;;0.10;0.10;;;;;;;;;;4192741;28;20048;-34
2022/04/03 04:45:35;;;;;;;0.10;0.10;;;;;;;;;;4192693;28;20105;-34
2022/04/03 04:47:37;;;;;;;0.10;0.00;;;;;;;;;;4192880;28;20114;-34
2022/04/03 04:49:38;;;;;;;0.22;0.10;;;;;;;;;;4192576;28;20100;-34
2022/04/03 04:51:39;;;;;;;0.85;0.20;;;;;;;;;;4192712;28;20048;-34
2022/04/03 04:53:40;;;;;;;0.22;0.10;;;;;;;;;;4192679;28;20403;-34
2022/04/03 04:55:42;;;;;;;0.10;0.10;;;;;;;;;;4194792;28;20049;-34
2022/04/03 04:57:48;;;;;;;0.13;0.13;;;;;;;;;;4195423;28;20052;-34
2022/04/03 04:59:48;;;;;;;0.30;0.10;;;;;;;;;;4210628;28;20121;-34
2022/04/03 05:01:50;;;;;;;0.20;0.08;;;;;;;;;;4212483;28;20071;-33
2022/04/03 05:03:51;;;;;;;0.20;0.10;;;;;;;;;;4212331;28;20418;-33
2022/04/03 05:05:52;;;;;;;0.22;0.20;;;;;;;;;;4210427;28;20082;-34
2022/04/03 05:07:55;;;;;;;0.10;0.10;;;;;;;;;;4212609;28;20140;-33
2022/04/03 05:09:56;;;;;;;0.10;0.10;;;;;;;;;;4211609;28;20105;-35
2022/04/03 05:11:57;;;;;;;0.15;0.10;;;;;;;;;;4210633;28;20485;-35
2022/04/03 05:13:59;;;;;;;0.10;0.10;;;;;;;;;;4211956;28;20112;-35
2022/04/03 05:16:00;;;;;;;0.10;0.10;;;;;;;;;;4211922;28;20044;-35
2022/04/03 05:18:01;;;;;;;0.00;0.00;;;;;;;;;;4206713;28;20478;-35
2022/04/03 05:20:03;;;;;;;0.10;0.10;;;;;;;;;;4203063;28;20438;-35
2022/04/03 05:22:04;;;;;;;0.10;0.00;;;;;;;;;;4196031;28;20076;-36
2022/04/03 05:24:05;;;;;;;0.20;0.20;;;;;;;;;;4197005;28;20438;-36
2022/04/03 05:26:06;;;;;;;0.08;0.08;;;;;;;;;;4196716;28;20049;-36
2022/04/03 05:28:09;;;;;;;0.10;0.10;;;;;;;;;;4196802;28;20048;-35
2022/04/03 05:30:11;;;;;;;0.10;0.10;;;;;;;;;;4197027;28;20056;-36
2022/04/03 05:32:12;;;;;;;0.03;0.00;;;;;;;;;;4204326;28;20059;-36
2022/04/03 05:34:13;;;;;;;0.20;0.20;;;;;;;;;;4213735;28;20040;-36
2022/04/03 05:36:14;;;;;;;0.10;0.10;;;;;;;;;;4213525;28;20082;-35
2022/04/03 05:38:15;;;;;;;0.30;0.17;;;;;;;;;;4213556;28;20089;-36
2022/04/03 05:40:15;;;;;;;0.65;0.45;;;;;;;;;;4213031;28;20141;-35
2022/04/03 05:42:17;;;;;;;0.17;0.10;;;;;;;;;;4213551;28;20119;-35
2022/04/03 05:44:18;;;;;;;0.10;0.10;;;;;;;;;;4213332;28;20117;-36
2022/04/03 05:46:19;;;;;;;0.30;0.10;;;;;;;;;;4213287;28;20048;-35
2022/04/03 05:48:20;;;;;;;0.20;0.15;;;;;;;;;;4199822;28;20177;-36
2022/04/03 05:50:21;;;;;;;0.30;0.10;;;;;;;;;;4211421;28;20388;-35
2022/04/03 05:52:22;;;;;;;0.10;0.10;;;;;;;;;;4211824;28;20048;-36
2022/04/03 05:54:23;;;;;;;0.10;0.10;;;;;;;;;;4213400;28;20040;-35
2022/04/03 05:56:27;;;;;;;0.52;0.15;;;;;;;;;;4212910;28;20101;-35
2022/04/03 05:58:28;;;;;;;0.10;0.10;;;;;;;;;;4213191;28;20339;-35
2022/04/03 06:00:29;;;;;;;0.10;0.10;;;;;;;;;;4213091;28;20189;-35
2022/04/03 06:02:31;;;;;;;0.10;0.10;;;;;;;;;;4212110;28;20074;-36
2022/04/03 06:04:33;;;;;;;0.15;0.15;;;;;;;;;;4213015;28;20047;-35
2022/04/03 06:06:34;;;;;;;0.00;0.00;;;;;;;;;;4212211;28;20467;-36
2022/04/03 06:08:34;;;;;;;0.25;0.15;;;;;;;;;;4213316;28;20139;-35
2022/04/03 06:10:35;;;;;;;0.10;0.10;;;;;;;;;;4211314;28;20091;-35
2022/04/03 06:12:36;;;;;;;0.10;0.10;;;;;;;;;;4212587;28;20117;-36
2022/04/03 06:14:37;;;;;;;0.10;0.10;;;;;;;;;;4212828;28;20479;-35
2022/04/03 06:16:38;;;;;;;0.25;0.10;;;;;;;;;;4212961;28;20095;-35
2022/04/03 06:18:39;;;;;;;0.20;0.20;;;;;;;;;;4212962;28;20109;-36
2022/04/03 06:20:41;;;;;;;0.15;0.15;;;;;;;;;;4212725;28;20109;-36
2022/04/03 06:22:42;;;;;;;0.10;0.10;;;;;;;;;;4212744;28;20048;-33
2022/04/03 06:24:43;;;;;;;0.05;0.05;;;;;;;;;;4212522;28;20055;-35
2022/04/03 06:26:44;;;;;;;0.10;0.10;;;;;;;;;;4211563;28;20050;-36
2022/04/03 06:28:45;;;;;;;0.10;0.10;;;;;;;;;;4212797;28;20094;-36
2022/04/03 06:30:46;;;;;;;0.57;0.20;;;;;;;;;;4212532;28;20048;-36
2022/04/03 06:32:47;;;;;;;1.17;0.10;;;;;;;;;;4212912;28;20044;-35
2022/04/03 06:34:48;;;;;;;0.20;0.10;;;;;;;;;;4212762;28;20048;-35
2022/04/03 06:36:49;;;;;;;0.20;0.10;;;;;;;;;;4212544;28;20586;-35
2022/04/03 06:38:50;;;;;;;0.10;0.10;;;;;;;;;;4212728;28;20039;-36
2022/04/03 06:40:52;;;;;;;0.10;0.10;;;;;;;;;;4211956;28;20188;-35
2022/04/03 06:42:53;;;;;;;0.68;0.20;;;;;;;;;;4212580;28;20056;-35
2022/04/03 06:44:54;;;;;;;0.10;0.10;;;;;;;;;;4212291;28;20188;-35
2022/04/03 06:46:55;;;;;;;0.00;0.00;;;;;;;;;;4212502;28;20411;-36
2022/04/03 06:48:57;;;;;;;0.08;0.08;;;;;;;;;;4212419;28;20047;-36
2022/04/03 06:50:58;;;;;;;0.15;0.10;;;;;;;;;;4212178;28;20549;-35
2022/04/03 06:52:59;;;;;;;0.65;0.10;;;;;;;;;;4212248;28;20091;-36
2022/04/03 06:55:00;;;;;;;0.00;0.00;;;;;;;;;;4211501;28;20151;-36
2022/04/03 06:57:01;;;;;;;0.00;0.00;;;;;;;;;;4212292;28;20052;-36
2022/04/03 06:59:02;;;;;;;0.70;0.10;;;;;;;;;;4212373;28;20051;-36
2022/04/03 07:01:03;;;;;;;0.20;0.20;;;;;;;;;;4212222;28;20501;-35
2022/04/03 07:03:05;;;;;;;0.30;0.20;;;;;;;;;;4212240;28;20495;-35
2022/04/03 07:05:06;;;;;;;0.30;0.10;;;;;;;;;;4212177;28;20048;-36
2022/04/03 07:07:06;;;;;;;0.10;0.10;;;;;;;;;;4212191;28;20047;-35
2022/04/03 07:09:11;;;;;;;0.17;0.10;;;;;;;;;;4211961;28;20104;-35
2022/04/03 07:11:12;;;;;;;0.10;0.10;;;;;;;;;;4211565;28;20048;-35
2022/04/03 07:13:13;;;;;;;0.20;0.10;;;;;;;;;;4210484;28;20051;-35
2022/04/03 07:15:14;;;;;;;0.15;0.10;;;;;;;;;;4210838;28;20048;-35
2022/04/03 07:17:16;;;;;;;0.10;0.10;;;;;;;;;;4211762;28;20052;-35
2022/04/03 07:19:17;;;;;;;0.10;0.10;;;;;;;;;;4211886;28;20089;-35
2022/04/03 07:21:18;;;;;;;0.10;0.10;;;;;;;;;;4211928;28;20043;-36
2022/04/03 07:23:22;;;;;;;0.10;0.10;;;;;;;;;;4211907;28;20526;-36
2022/04/03 07:25:23;;;;;;;0.15;0.10;;;;;;;;;;4211280;28;20407;-35
2022/04/03 07:27:24;;;;;;;0.15;0.10;;;;;;;;;;4210651;28;20134;-35
2022/04/03 07:29:25;;;;;;;0.20;0.20;;;;;;;;;;4211592;28;20502;-35
2022/04/03 07:31:28;;;;;;;0.10;0.10;;;;;;;;;;4211538;28;20566;-36
2022/04/03 07:33:29;;;;;;;0.30;0.10;;;;;;;;;;4211716;28;20420;-36
2022/04/03 07:35:30;;;;;;;0.08;0.08;;;;;;;;;;4210436;28;20055;-35
2022/04/03 07:37:32;;;;;;;0.00;0.00;;;;;;;;;;4211681;28;20043;-36
2022/04/03 07:39:33;;;;;;;0.00;0.00;;;;;;;;;;4211482;28;20597;-36
2022/04/03 07:41:34;;;;;;;0.20;0.13;;;;;;;;;;4211945;28;20152;-36
2022/04/03 07:43:35;;;;;;;0.05;0.05;;;;;;;;;;4211574;28;20051;-35
2022/04/03 07:45:36;;;;;;;0.20;0.10;;;;;;;;;;4212021;28;20055;-35
2022/04/03 07:47:44;;;;;;;0.20;0.10;;;;;;;;;;4210513;28;20499;-36
2022/04/03 07:49:44;;;;;;;0.10;0.10;;;;;;;;;;4211559;28;20510;-36
2022/04/03 07:51:46;;;;;;;0.20;0.10;;;;;;;;;;4210496;28;20064;-35
2022/04/03 07:53:47;;;;;;;0.10;0.10;;;;;;;;;;4211413;28;20473;-35
2022/04/03 07:55:48;;;;;;;0.10;0.10;;;;;;;;;;4211171;28;20044;-36
2022/04/03 07:57:49;;;;;;;0.15;0.10;;;;;;;;;;4211905;28;20608;-35
2022/04/03 07:59:50;;;;;;;0.20;0.10;;;;;;;;;;4211519;28;20052;-36
2022/04/03 08:01:51;;;;;;;0.10;0.10;;;;;;;;;;4211608;28;20052;-36
2022/04/03 08:03:52;;;;;;;0.10;0.10;;;;;;;;;;4211258;28;20097;-35
2022/04/03 08:05:53;;;;;;;0.10;0.10;;;;;;;;;;4211231;28;20503;-36
2022/04/03 08:07:58;;;;;;;0.25;0.10;;;;;;;;;;4211373;28;20052;-35
2022/04/03 08:09:58;;;;;;;0.00;0.00;;;;;;;;;;4210890;28;20052;-36
2022/04/03 08:11:59;;;;;;;0.10;0.10;;;;;;;;;;4211566;28;20100;-36
2022/04/03 08:14:00;;;;;;;0.20;0.10;;;;;;;;;;4211413;28;20545;-35
2022/04/03 08:16:02;;;;;;;0.10;0.10;;;;;;;;;;4211093;28;20048;-36
2022/04/03 08:18:03;;;;;;;0.10;0.10;;;;;;;;;;4210372;28;20224;-35
2022/04/03 08:20:04;;;;;;;0.10;0.10;;;;;;;;;;4211109;28;20510;-35
2022/04/03 08:22:05;;;;;;;0.00;0.00;;;;;;;;;;4211630;28;20324;-35
2022/04/03 08:24:08;;;;;;;0.10;0.10;;;;;;;;;;4211364;28;20062;-36
2022/04/03 08:26:10;;;;;;;0.03;0.00;;;;;;;;;;4210881;28;20052;-36
2022/04/03 08:28:11;;;;;;;0.10;0.08;;;;;;;;;;4211273;28;20056;-36
2022/04/03 08:30:14;;;;;;;0.03;0.00;;;;;;;;;;4212445;28;20081;-35
2022/04/03 08:32:15;;;;;;;0.00;0.00;;;;;;;;;;4214555;28;20120;-36
2022/04/03 08:34:17;;;;;;;0.10;0.10;;;;;;;;;;4214586;28;20079;-35
2022/04/03 08:36:18;;;;;;;0.10;0.10;;;;;;;;;;4214500;28;20059;-36
2022/04/03 08:38:19;;;;;;;0.08;0.08;;;;;;;;;;4214673;28;20498;-36
2022/04/03 08:40:21;;;;;;;0.05;0.05;;;;;;;;;;4214207;28;20052;-36
2022/04/03 08:42:22;;;;;;;0.13;0.10;;;;;;;;;;4214672;28;20052;-36
2022/04/03 08:44:24;;;;;;;0.03;0.03;;;;;;;;;;4214575;28;20105;-35
2022/04/03 08:46:25;;;;;;;0.13;0.10;;;;;;;;;;4214360;28;20455;-36
2022/04/03 08:48:28;;;;;;;0.10;0.10;;;;;;;;;;4214492;28;20325;-35
2022/04/03 08:50:30;;;;;;;0.15;0.10;;;;;;;;;;4213997;28;20544;-36
2022/04/03 08:52:31;;;;;;;0.10;0.10;;;;;;;;;;4214136;28;20055;-36
2022/04/03 08:54:33;;;;;;;0.03;0.00;;;;;;;;;;4214192;28;20044;-36
2022/04/03 08:56:34;;;;;;;0.10;0.10;;;;;;;;;;4214064;28;20040;-36
2022/04/03 08:58:35;;;;;;;0.00;0.00;;;;;;;;;;4214077;28;20063;-36
2022/04/03 09:00:36;;;;;;;0.32;0.10;;;;;;;;;;4213899;28;20048;-35
2022/04/03 09:02:37;;;;;;;0.13;0.00;;;;;;;;;;4212694;28;20121;-36
2022/04/03 09:04:38;;;;;;;0.10;0.10;;;;;;;;;;4214148;28;20056;-36
2022/04/03 09:06:53;;;;;;;0.10;0.10;;;;;;;;;;4214107;28;20071;-35
2022/04/03 09:08:53;;;;;;;0.10;0.10;;;;;;;;;;4212631;28;20414;-36
2022/04/03 09:11:03;;;;;;;0.10;0.10;;;;;;;;;;4213166;28;20039;-36
2022/04/03 09:13:04;;;;;;;0.70;0.10;;;;;;;;;;4213896;28;20105;-36
2022/04/03 09:15:11;;;;;;;0.10;0.00;;;;;;;;;;4213562;28;20403;-35
2022/04/03 09:17:13;;;;;;;0.20;0.10;;;;;;;;;;4214160;28;20044;-36
2022/04/03 09:19:14;;;;;;;0.22;0.10;;;;;;;;;;4213551;28;20372;-35
2022/04/03 09:21:22;;;;;;;0.00;0.00;;;;;;;;;;4213604;28;20105;-35
2022/04/03 09:23:24;;;;;;;0.10;0.10;;;;;;;;;;4213723;28;20048;-36
2022/04/03 09:25:28;;;;;;;0.10;0.10;;;;;;;;;;4213323;28;20043;-36
2022/04/03 09:27:32;;;;;;;0.00;0.00;;;;;;;;;;4213785;28;20113;-35
2022/04/03 09:29:32;;;;;;;0.70;0.00;;;;;;;;;;4213188;28;20055;-35
2022/04/03 09:31:33;;;;;;;0.10;0.10;;;;;;;;;;4212047;28;20043;-36
2022/04/03 09:33:36;;;;;;;0.00;0.00;;;;;;;;;;4213535;28;20048;-35
2022/04/03 09:35:54;;;;;;;0.10;0.10;;;;;;;;;;4213281;28;20044;-37
2022/04/03 09:38:07;;;;;;;0.10;0.10;;;;;;;;;;4213480;28;20048;-36
2022/04/03 09:40:08;;;;;;;0.10;0.10;;;;;;;;;;4212151;28;20056;-36
2022/04/03 09:42:11;;;;;;;0.22;0.10;;;;;;;;;;4213155;28;20052;-36
2022/04/03 09:44:17;;;;;;;0.10;0.10;;;;;;;;;;4213451;28;20043;-36
2022/04/03 09:46:19;;;;;;;0.10;0.10;;;;;;;;;;4213357;28;20048;-36
2022/04/03 09:48:20;;;;;;;0.38;0.00;;;;;;;;;;4213117;28;20541;-35
2022/04/03 09:50:21;;;;;;;0.20;0.10;;;;;;;;;;4213455;28;20109;-36
2022/04/03 09:52:41;;;;;;;0.10;0.05;;;;;;;;;;4213115;28;20062;-36
2022/04/03 09:54:45;;;;;;;0.17;0.08;;;;;;;;;;4212752;28;20044;-35
2022/04/03 09:56:46;;;;;;;0.00;0.00;;;;;;;;;;4213302;28;20044;-35
2022/04/03 09:58:49;;;;;;;0.10;0.05;;;;;;;;;;4212912;28;20469;-35
2022/04/03 10:00:50;;;;;;;0.10;0.10;;;;;;;;;;4211676;28;20454;-35
2022/04/03 10:02:57;;;;;;;0.65;0.10;;;;;;;;;;4212856;28;20060;-35
2022/04/03 10:04:58;;;;;;;0.00;0.00;;;;;;;;;;4212863;28;20402;-35
2022/04/03 10:06:59;;;;;;;0.10;0.10;;;;;;;;;;4213025;28;20117;-35
2022/04/03 10:09:01;;;;;;;0.08;0.08;;;;;;;;;;4213079;28;20128;-36
2022/04/03 10:11:01;;;;;;;0.10;0.00;;;;;;;;;;4212548;28;20044;-35
2022/04/03 10:13:03;;;;;;;0.10;0.00;;;;;;;;;;4212971;28;20178;-35
2022/04/03 10:15:04;;;;;;;0.10;0.03;;;;;;;;;;4212553;28;20040;-35
2022/04/03 10:17:06;;;;;;;0.70;0.10;;;;;;;;;;4213163;28;20044;-35
2022/04/03 10:19:06;;;;;;;0.08;0.08;;;;;;;;;;4211339;28;20040;-35
2022/04/03 10:21:11;;;;;;;0.40;0.10;;;;;;;;;;4212746;28;20454;-35
2022/04/03 10:23:12;;;;;;;0.00;0.00;;;;;;;;;;4211285;28;20588;-35
2022/04/03 10:25:23;;;;;;;0.10;0.00;;;;;;;;;;4212048;28;20051;-35
2022/04/03 10:27:28;;;;;;;0.40;0.00;;;;;;;;;;4212648;28;20097;-35
2022/04/03 10:29:34;;;;;;;0.08;0.08;;;;;;;;;;4212747;28;20055;-35
2022/04/03 10:31:38;;;;;;;0.10;0.10;;;;;;;;;;4212426;28;20105;-36
2022/04/03 10:33:40;;;;;;;0.10;0.10;;;;;;;;;;4212467;28;20085;-35
2022/04/03 10:35:46;;;;;;;0.03;0.03;;;;;;;;;;4212332;28;20102;-35
2022/04/03 10:37:57;;;;;;;0.25;0.20;;;;;;;;;;4210889;28;20047;-35
2022/04/03 10:40:04;;;;;;;0.38;0.10;;;;;;;;;;4211976;28;20048;-35
2022/04/03 10:42:24;;;;;;;0.20;0.17;;;;;;;;;;4212422;28;20450;-35
2022/04/03 10:44:26;;;;;;;0.10;0.10;;;;;;;;;;4212200;28;20415;-35
2022/04/03 10:46:30;;;;;;;0.17;0.10;;;;;;;;;;4211988;28;20483;-35
2022/04/03 10:48:31;;;;;;;0.32;0.10;;;;;;;;;;4212451;28;20073;-35
2022/04/03 10:50:52;;;;;;;0.03;0.03;;;;;;;;;;4212225;28;20105;-35
2022/04/03 10:52:55;;;;;;;0.05;0.00;;;;;;;;;;4211749;28;20044;-35
2022/04/03 10:55:00;;;;;;;0.00;0.00;;;;;;;;;;4211902;28;20052;-35
2022/04/03 10:57:19;;;;;;;0.10;0.10;;;;;;;;;;4212146;28;20101;-35
2022/04/03 10:59:23;;;;;;;0.30;0.10;;;;;;;;;;4212037;28;20101;-35
2022/04/03 11:01:28;;;;;;;0.10;0.10;;;;;;;;;;4211902;28;20479;-35
2022/04/03 11:03:30;;;;;;;0.20;0.15;;;;;;;;;;4212271;28;20052;-35
2022/04/03 11:05:31;;;;;;;0.00;0.00;;;;;;;;;;4210618;28;20102;-35
2022/04/03 11:07:33;;;;;;;0.30;0.10;;;;;;;;;;4212082;28;20089;-35
2022/04/03 11:09:39;;;;;;;0.43;0.32;;;;;;;;;;4211721;28;20105;-35
2022/04/03 11:11:47;;;;;;;0.17;0.10;;;;;;;;;;4210603;28;20047;-36
2022/04/03 11:13:48;;;;;;;0.30;0.30;;;;;;;;;;4211861;28;20501;-35
2022/04/03 11:15:52;;;;;;;0.10;0.10;;;;;;;;;;4211539;28;20096;-35
2022/04/03 11:17:54;;;;;;;0.20;0.05;;;;;;;;;;4211812;28;20052;-35
2022/04/03 11:19:57;;;;;;;0.20;0.10;;;;;;;;;;4211436;28;20135;-35
2022/04/03 11:21:58;;;;;;;0.20;0.10;;;;;;;;;;4212063;28;20055;-35
2022/04/03 11:24:03;;;;;;;0.13;0.10;;;;;;;;;;4211652;28;20059;-35
2022/04/03 11:26:04;;;;;;;0.20;0.00;;;;;;;;;;4210992;28;20051;-35
2022/04/03 11:28:06;;;;;;;0.55;0.13;;;;;;;;;;4212004;28;20093;-35
2022/04/03 11:30:07;;;;;;;0.10;0.10;;;;;;;;;;4211217;28;20094;-35
2022/04/03 11:32:08;;;;;;;0.47;0.00;;;;;;;;;;4211908;28;20071;-35
2022/04/03 11:34:12;;;;;;;0.00;0.00;;;;;;;;;;4211801;28;20047;-35
2022/04/03 11:36:15;;;;;;;0.00;0.00;;;;;;;;;;4211536;28;20085;-35
2022/04/03 11:38:17;;;;;;;0.68;0.10;;;;;;;;;;4211890;28;20040;-35
2022/04/03 11:40:22;;;;;;;0.52;0.22;;;;;;;;;;4209913;28;20101;-35
2022/04/03 11:42:23;;;;;;;0.20;0.10;;;;;;;;;;4211544;28;20436;-35
2022/04/03 11:44:24;;;;;;;0.10;0.10;;;;;;;;;;4211358;28;20048;-35
2022/04/03 11:46:25;;;;;;;0.10;0.08;;;;;;;;;;4210136;28;20482;-35
2022/04/03 11:48:27;;;;;;;0.35;0.10;;;;;;;;;;4211693;28;20529;-35
2022/04/03 11:50:28;;;;;;;0.05;0.05;;;;;;;;;;4211365;28;20051;-35
2022/04/03 11:52:29;;;;;;;0.17;0.10;;;;;;;;;;4211401;28;20085;-35
2022/04/03 11:54:30;;;;;;;0.68;0.10;;;;;;;;;;4211469;28;20465;-35
2022/04/03 11:56:34;;;;;;;0.25;0.00;;;;;;;;;;4211078;28;20280;-35
2022/04/03 11:58:39;;;;;;;0.10;0.05;;;;;;;;;;4211384;28;20394;-35
2022/04/03 12:00:45;;;;;;;0.10;0.10;;;;;;;;;;4211297;28;20102;-35
2022/04/03 12:02:46;;;;;;;0.43;0.10;;;;;;;;;;4211446;28;20410;-35
2022/04/03 12:04:47;;;;;;;0.10;0.10;;;;;;;;;;4213495;28;20044;-35
2022/04/03 12:06:57;;;;;;;0.05;0.05;;;;;;;;;;4215003;28;20062;-35
2022/04/03 12:08:58;;;;;;;0.13;0.00;;;;;;;;;;4214832;28;20435;-35
2022/04/03 12:10:59;;;;;;;0.00;0.00;;;;;;;;;;4214176;28;20491;-34